createdAt,value
2023-04-25T00:02:10.298Z,12.17
2023-04-25T00:05:16.131Z,12.13
2023-04-25T00:08:19.053Z,12.20
2023-04-25T00:11:22.410Z,12.12
2023-04-25T00:14:25.076Z,12.20
2023-04-25T00:17:28.168Z,12.27
2023-04-25T00:20:31.074Z,12.23
2023-04-25T00:23:36.572Z,12.25
2023-04-25T00:26:39.401Z,12.34
2023-04-25T00:29:42.375Z,12.22
2023-04-25T00:32:47.020Z,12.25
2023-04-25T00:35:50.177Z,12.22
2023-04-25T00:38:54.827Z,12.21
2023-04-25T00:41:57.773Z,12.18
2023-04-25T00:45:02.039Z,12.30
2023-04-25T00:48:05.791Z,12.30
2023-04-25T00:51:08.636Z,12.06
2023-04-25T00:54:13.401Z,12.22
2023-04-25T00:57:16.705Z,12.30
2023-04-25T01:00:21.830Z,12.26
2023-04-25T01:03:25.320Z,12.14
2023-04-25T01:06:28.607Z,12.15
2023-04-25T01:09:33.007Z,12.15
2023-04-25T01:12:36.357Z,12.07
2023-04-25T01:15:39.022Z,12.09
2023-04-25T01:18:42.998Z,12.05
2023-04-25T01:21:46.658Z,12.12
2023-04-25T01:24:49.778Z,12.10
2023-04-25T01:27:52.979Z,12.07
2023-04-25T01:30:56.190Z,11.92
2023-04-25T01:33:58.856Z,12.07
2023-04-25T01:37:02.813Z,11.92
2023-04-25T01:40:06.994Z,11.99
2023-04-25T01:43:12.083Z,11.95
2023-04-25T01:46:16.346Z,11.94
2023-04-25T01:49:20.276Z,11.89
2023-04-25T01:52:23.320Z,11.90
2023-04-25T01:55:26.304Z,11.90
2023-04-25T01:58:33.898Z,11.91
2023-04-25T02:01:38.688Z,11.96
2023-04-25T02:04:42.786Z,11.80
2023-04-25T02:07:45.675Z,11.84
2023-04-25T02:10:49.651Z,11.87
2023-04-25T02:13:53.513Z,11.73
2023-04-25T02:16:58.456Z,11.69
2023-04-25T02:20:01.573Z,11.73
2023-04-25T02:23:05.010Z,11.62
2023-04-25T02:26:07.545Z,11.65
2023-04-25T02:29:12.612Z,11.65
2023-04-25T02:32:15.572Z,11.61
2023-04-25T02:35:18.223Z,11.57
2023-04-25T02:38:22.112Z,11.69
2023-04-25T02:41:24.664Z,11.67
2023-04-25T02:44:48.835Z,11.69
2023-04-25T02:47:51.529Z,11.63
2023-04-25T02:50:56.012Z,11.67
2023-04-25T02:53:58.789Z,11.59
2023-04-25T02:57:03.487Z,11.61
2023-04-25T03:00:08.327Z,11.61
2023-04-25T03:03:12.195Z,11.68
2023-04-25T03:06:16.511Z,11.75
2023-04-25T03:09:19.917Z,11.61
2023-04-25T03:12:22.756Z,11.66
2023-04-25T03:15:25.782Z,11.59
2023-04-25T03:18:30.215Z,11.74
2023-04-25T03:21:34.950Z,11.65
2023-04-25T03:24:38.354Z,11.56
2023-04-25T03:27:41.568Z,11.55
2023-04-25T03:30:44.254Z,11.64
2023-04-25T03:33:47.346Z,11.61
2023-04-25T03:36:49.924Z,11.50
2023-04-25T03:39:52.832Z,11.55
2023-04-25T03:42:55.515Z,11.72
2023-04-25T03:45:58.988Z,11.55
2023-04-25T03:49:01.710Z,11.57
2023-04-25T03:52:05.865Z,11.48
2023-04-25T03:55:10.000Z,11.63
2023-04-25T03:58:13.446Z,11.52
2023-04-25T04:01:16.523Z,11.53
2023-04-25T04:04:19.916Z,11.60
2023-04-25T04:07:23.349Z,11.47
2023-04-25T04:10:27.669Z,11.48
2023-04-25T04:13:31.517Z,11.54
2023-04-25T04:16:34.800Z,11.38
2023-04-25T04:19:37.897Z,11.41
2023-04-25T04:22:41.468Z,11.54
2023-04-25T04:25:45.227Z,11.53
2023-04-25T04:28:49.017Z,11.44
2023-04-25T04:31:53.689Z,11.57
2023-04-25T04:34:57.299Z,11.42
2023-04-25T04:37:59.857Z,11.34
2023-04-25T04:41:04.350Z,11.43
2023-04-25T04:44:11.121Z,11.44
2023-04-25T04:47:15.127Z,11.55
2023-04-25T04:50:22.687Z,11.40
2023-04-25T04:53:48.160Z,11.43
2023-04-25T04:56:52.299Z,11.40
2023-04-25T04:59:55.481Z,11.39
2023-04-25T05:02:58.443Z,11.29
2023-04-25T05:06:02.070Z,11.35
2023-04-25T05:09:05.471Z,11.37
2023-04-25T05:12:09.242Z,11.14
2023-04-25T05:15:12.445Z,11.17
2023-04-25T05:18:15.648Z,11.14
2023-04-25T05:21:18.589Z,11.32
2023-04-25T05:24:21.526Z,11.15
2023-04-25T05:27:26.975Z,11.14
2023-04-25T05:30:30.367Z,11.12
2023-04-25T05:33:33.376Z,11.18
2023-04-25T05:36:37.508Z,11.04
2023-04-25T05:39:40.339Z,11.09
2023-04-25T05:42:43.406Z,11.05
2023-04-25T05:45:46.882Z,11.12
2023-04-25T05:48:54.442Z,11.10
2023-04-25T05:51:57.272Z,10.99
2023-04-25T05:55:01.837Z,11.06
2023-04-25T05:58:07.439Z,11.00
2023-04-25T06:01:10.495Z,10.99
2023-04-25T06:04:15.308Z,10.86
2023-04-25T06:07:18.991Z,10.85
2023-04-25T06:10:23.639Z,10.81
2023-04-25T06:13:26.310Z,10.82
2023-04-25T06:16:29.322Z,10.72
2023-04-25T06:19:38.641Z,10.52
2023-04-25T06:22:41.636Z,10.41
2023-04-25T06:25:44.491Z,10.32
2023-04-25T06:28:47.870Z,10.28
2023-04-25T06:31:51.188Z,10.34
2023-04-25T06:34:54.637Z,10.16
2023-04-25T06:37:58.128Z,10.08
2023-04-25T06:41:01.563Z,10.05
2023-04-25T06:44:04.601Z,10.06
2023-04-25T06:47:08.358Z,10.15
2023-04-25T06:50:11.946Z,10.10
2023-04-25T06:53:15.833Z,10.01
2023-04-25T06:56:19.162Z,10.14
2023-04-25T06:59:23.092Z,10.19
2023-04-25T07:02:26.608Z,10.37
2023-04-25T07:05:30.188Z,10.31
2023-04-25T07:08:33.448Z,10.59
2023-04-25T07:11:37.142Z,10.67
2023-04-25T07:14:40.331Z,10.81
2023-04-25T07:17:43.434Z,10.84
2023-04-25T07:20:47.404Z,10.96
2023-04-25T07:23:50.376Z,10.93
2023-04-25T07:26:53.200Z,11.16
2023-04-25T07:29:56.656Z,11.16
2023-04-25T07:32:59.384Z,11.27
2023-04-25T07:36:02.982Z,11.35
2023-04-25T07:39:05.912Z,11.50
2023-04-25T07:42:09.302Z,11.58
2023-04-25T07:45:12.852Z,11.67
2023-04-25T07:48:19.801Z,11.77
2023-04-25T07:51:23.257Z,11.73
2023-04-25T07:54:28.893Z,11.85
2023-04-25T07:57:32.984Z,11.88
2023-04-25T08:00:36.735Z,12.04
2023-04-25T08:03:45.447Z,12.14
2023-04-25T08:06:49.948Z,11.98
2023-04-25T08:09:53.746Z,12.07
2023-04-25T08:12:58.224Z,12.23
2023-04-25T08:16:01.402Z,12.21
2023-04-25T08:19:04.729Z,12.39
2023-04-25T08:22:08.598Z,12.51
2023-04-25T08:25:11.570Z,12.51
2023-04-25T08:28:16.142Z,12.61
2023-04-25T08:31:19.553Z,12.52
2023-04-25T08:34:23.950Z,12.41
2023-04-25T08:37:26.914Z,12.68
2023-04-25T08:40:31.268Z,12.77
2023-04-25T08:43:36.102Z,12.78
2023-04-25T08:46:39.966Z,12.90
2023-04-25T08:49:47.201Z,13.11
2023-04-25T08:52:53.466Z,13.20
2023-04-25T08:55:57.751Z,13.25
2023-04-25T08:59:02.068Z,13.36
2023-04-25T09:02:05.266Z,13.46
2023-04-25T09:05:10.755Z,13.44
2023-04-25T09:08:13.799Z,13.58
2023-04-25T09:11:20.347Z,13.69
2023-04-25T09:14:24.079Z,13.80
2023-04-25T09:17:27.814Z,13.87
2023-04-25T09:20:31.782Z,13.77
2023-04-25T09:23:49.414Z,13.92
2023-04-25T09:26:53.205Z,14.08
2023-04-25T09:30:02.988Z,14.09
2023-04-25T09:33:12.284Z,14.29
2023-04-25T09:36:16.419Z,14.24
2023-04-25T09:39:22.448Z,14.31
2023-04-25T09:42:29.737Z,14.50
2023-04-25T09:45:32.909Z,14.69
2023-04-25T09:48:36.533Z,14.64
2023-04-25T09:51:39.381Z,14.89
2023-04-25T09:54:42.842Z,14.97
2023-04-25T09:57:48.010Z,15.18
2023-04-25T10:00:52.220Z,15.11
2023-04-25T10:03:58.202Z,15.27
2023-04-25T10:07:07.151Z,14.95
2023-04-25T10:10:13.748Z,15.21
2023-04-25T10:13:16.453Z,15.31
2023-04-25T10:16:19.843Z,15.21
2023-04-25T10:19:26.137Z,15.11
2023-04-25T10:22:42.379Z,14.82
2023-04-25T10:25:45.103Z,15.11
2023-04-25T10:28:59.306Z,14.92
2023-04-25T10:32:02.128Z,14.91
2023-04-25T10:35:26.364Z,14.68
2023-04-25T10:38:28.967Z,14.75
2023-04-25T10:41:32.071Z,14.60
2023-04-25T10:44:35.025Z,14.43
2023-04-25T10:47:38.197Z,14.53
2023-04-25T10:50:41.021Z,14.38
2023-04-25T10:53:48.580Z,14.61
2023-04-25T10:56:51.870Z,14.61
2023-04-25T10:59:54.706Z,14.46
2023-04-25T11:03:00.912Z,14.37
2023-04-25T11:06:04.069Z,14.42
2023-04-25T11:09:13.631Z,14.34
2023-04-25T11:12:18.060Z,14.58
2023-04-25T11:15:20.633Z,14.69
2023-04-25T11:18:27.620Z,14.43
2023-04-25T11:21:32.706Z,14.69
2023-04-25T11:24:36.872Z,14.68
2023-04-25T11:28:02.202Z,14.55
2023-04-25T11:31:05.447Z,14.77
2023-04-25T11:34:07.995Z,14.71
2023-04-25T11:37:13.072Z,14.84
2023-04-25T11:40:16.029Z,15.24
2023-04-25T11:43:21.797Z,15.26
2023-04-25T11:46:24.484Z,15.06
2023-04-25T11:49:32.658Z,15.23
2023-04-25T11:52:41.997Z,15.19
2023-04-25T11:55:44.861Z,15.33
2023-04-25T11:59:06.836Z,15.29
2023-04-25T12:02:10.226Z,15.15
2023-04-25T12:05:30.205Z,15.19
2023-04-25T12:08:35.263Z,15.09
2023-04-25T12:11:48.623Z,15.15
2023-04-25T12:14:51.231Z,15.20
2023-04-25T12:17:56.151Z,15.12
2023-04-25T12:20:59.195Z,14.93
2023-04-25T12:24:16.504Z,14.90
2023-04-25T12:27:20.046Z,14.87
2023-04-25T12:30:23.568Z,14.98
2023-04-25T12:33:29.016Z,14.78
2023-04-25T12:36:32.233Z,14.86
2023-04-25T12:39:35.003Z,15.06
2023-04-25T12:42:37.874Z,15.22
2023-04-25T12:45:40.980Z,15.63
2023-04-25T12:48:43.969Z,15.81
2023-04-25T12:51:46.765Z,15.93
2023-04-25T12:54:49.644Z,15.89
2023-04-25T12:57:52.398Z,15.96
2023-04-25T13:00:55.770Z,16.09
2023-04-25T13:03:58.621Z,15.77
2023-04-25T13:07:01.949Z,16.07
2023-04-25T13:10:04.832Z,15.82
2023-04-25T13:13:07.760Z,16.15
2023-04-25T13:16:10.466Z,16.59
2023-04-25T13:19:13.724Z,16.45
2023-04-25T13:22:17.894Z,16.53
2023-04-25T13:25:20.743Z,16.42
2023-04-25T13:28:23.520Z,16.74
2023-04-25T13:31:26.452Z,16.56
2023-04-25T13:34:32.169Z,16.37
2023-04-25T13:37:35.021Z,16.49
2023-04-25T13:40:38.214Z,16.73
2023-04-25T13:43:41.310Z,16.80
2023-04-25T13:46:47.479Z,16.56
2023-04-25T13:49:51.331Z,16.60
2023-04-25T13:52:53.882Z,16.77
2023-04-25T13:55:56.761Z,16.24
2023-04-25T13:58:59.490Z,16.57
2023-04-25T14:02:02.693Z,16.31
2023-04-25T14:05:06.730Z,16.11
2023-04-25T14:08:10.404Z,16.31
2023-04-25T14:11:13.290Z,16.10
2023-04-25T14:14:17.194Z,15.95
2023-04-25T14:17:20.991Z,16.01
2023-04-25T14:20:24.961Z,15.90
2023-04-25T14:23:27.844Z,15.91
2023-04-25T14:26:31.196Z,15.81
2023-04-25T14:29:34.066Z,15.91
2023-04-25T14:32:36.703Z,16.18
2023-04-25T14:35:40.011Z,16.36
2023-04-25T14:38:42.598Z,16.50
2023-04-25T14:41:46.305Z,16.57
2023-04-25T14:44:48.895Z,16.84
2023-04-25T14:47:51.898Z,16.72
2023-04-25T14:50:54.435Z,16.72
2023-04-25T14:53:57.652Z,16.64
2023-04-25T14:57:00.300Z,16.66
2023-04-25T15:00:06.327Z,16.68
2023-04-25T15:03:12.916Z,16.89
2023-04-25T15:06:16.079Z,16.85
2023-04-25T15:09:19.306Z,16.75
2023-04-25T15:12:22.317Z,16.71
2023-04-25T15:15:26.747Z,16.76
2023-04-25T15:18:29.910Z,16.79
2023-04-25T15:21:32.655Z,16.51
2023-04-25T15:24:35.633Z,16.37
2023-04-25T15:27:41.662Z,16.22
2023-04-25T15:30:44.834Z,15.83
2023-04-25T15:33:47.343Z,15.86
2023-04-25T15:36:50.241Z,15.97
2023-04-25T15:40:09.693Z,15.86
2023-04-25T15:43:16.222Z,16.08
2023-04-25T15:46:18.974Z,16.05
2023-04-25T15:49:22.453Z,16.12
2023-04-25T15:52:25.900Z,16.01
2023-04-25T15:55:29.272Z,16.25
2023-04-25T15:58:31.845Z,16.16
2023-04-25T16:01:34.891Z,16.30
2023-04-25T16:04:38.859Z,16.16
2023-04-25T16:07:43.315Z,16.06
2023-04-25T16:10:46.206Z,15.97
2023-04-25T16:13:49.218Z,15.65
2023-04-25T16:16:52.366Z,15.59
2023-04-25T16:19:55.920Z,15.71
2023-04-25T16:22:59.219Z,15.57
2023-04-25T16:26:01.711Z,15.32
2023-04-25T16:29:05.028Z,15.27
2023-04-25T16:32:08.076Z,15.11
2023-04-25T16:35:12.125Z,14.84
2023-04-25T16:38:14.837Z,14.80
2023-04-25T16:41:17.814Z,14.68
2023-04-25T16:44:20.334Z,14.61
2023-04-25T16:47:23.221Z,14.36
2023-04-25T16:50:27.056Z,14.31
2023-04-25T16:53:29.914Z,14.37
2023-04-25T16:56:32.519Z,14.17
2023-04-25T16:59:35.469Z,13.99
2023-04-25T17:02:38.251Z,13.77
2023-04-25T17:05:41.430Z,13.76
2023-04-25T17:08:44.219Z,13.50
2023-04-25T17:11:48.044Z,13.72
2023-04-25T17:14:50.698Z,13.47
2023-04-25T17:17:53.622Z,13.48
2023-04-25T17:20:56.594Z,13.49
2023-04-25T17:24:00.275Z,13.48
2023-04-25T17:27:03.250Z,13.48
2023-04-25T17:30:07.265Z,13.34
2023-04-25T17:33:11.565Z,13.16
2023-04-25T17:36:15.199Z,13.19
2023-04-25T17:39:20.097Z,13.24
2023-04-25T17:42:23.571Z,13.14
2023-04-25T17:45:28.804Z,13.16
2023-04-25T17:48:34.609Z,13.13
2023-04-25T17:51:37.722Z,12.91
2023-04-25T17:54:41.077Z,12.80
2023-04-25T17:57:49.045Z,12.77
2023-04-25T18:00:53.163Z,12.68
2023-04-25T18:03:57.159Z,12.62
2023-04-25T18:07:00.028Z,12.52
2023-04-25T18:10:07.198Z,12.47
2023-04-25T18:13:10.603Z,12.32
2023-04-25T18:16:13.649Z,12.29
2023-04-25T18:19:21.262Z,12.27
2023-04-25T18:22:24.637Z,12.17
2023-04-25T18:25:30.094Z,12.10
2023-04-25T18:28:34.425Z,12.11
2023-04-25T18:31:38.291Z,11.98
2023-04-25T18:34:46.159Z,12.00
2023-04-25T18:37:49.661Z,11.87
2023-04-25T18:41:00.142Z,11.80
2023-04-25T18:44:08.920Z,11.74
2023-04-25T18:47:13.204Z,11.69
2023-04-25T18:50:18.945Z,11.63
2023-04-25T18:53:22.480Z,11.49
2023-04-25T18:56:26.475Z,11.40
2023-04-25T18:59:29.722Z,11.49
2023-04-25T19:02:34.987Z,11.41
2023-04-25T19:05:39.021Z,11.43
2023-04-25T19:08:42.381Z,11.45
2023-04-25T19:11:45.991Z,11.34
2023-04-25T19:14:50.455Z,11.34
2023-04-25T19:17:54.126Z,11.38
2023-04-25T19:21:00.160Z,11.34
2023-04-25T19:24:05.164Z,11.18
2023-04-25T19:27:08.550Z,11.14
2023-04-25T19:30:13.800Z,11.10
2023-04-25T19:33:17.637Z,11.05
2023-04-25T19:36:22.196Z,11.08
2023-04-25T19:39:24.901Z,11.00
2023-04-25T19:42:28.070Z,10.79
2023-04-25T19:45:33.361Z,10.91
2023-04-25T19:48:37.003Z,10.87
2023-04-25T19:51:40.748Z,10.86
2023-04-25T19:54:45.565Z,10.82
2023-04-25T19:57:48.414Z,10.73
2023-04-25T20:00:52.412Z,10.64
2023-04-25T20:03:56.105Z,10.53
2023-04-25T20:06:59.271Z,10.52
2023-04-25T20:10:02.250Z,10.41
2023-04-25T20:13:05.517Z,10.46
2023-04-25T20:16:08.502Z,10.53
2023-04-25T20:19:11.534Z,10.45
2023-04-25T20:22:14.688Z,10.41
2023-04-25T20:25:17.570Z,10.23
2023-04-25T20:28:32.430Z,10.28
2023-04-25T20:31:36.868Z,10.40
2023-04-25T20:34:39.932Z,10.40
2023-04-25T20:37:43.390Z,10.28
2023-04-25T20:40:46.373Z,10.27
2023-04-25T20:43:50.196Z,10.29
2023-04-25T20:46:53.126Z,10.21
2023-04-25T20:49:56.193Z,10.18
2023-04-25T20:52:59.312Z,10.05
2023-04-25T20:56:02.720Z,10.01
2023-04-25T20:59:05.661Z,10.05
2023-04-25T21:02:10.382Z,10.05
2023-04-25T21:05:13.427Z,10.04
2023-04-25T21:08:16.086Z,10.06
2023-04-25T21:11:19.639Z,10.03
2023-04-25T21:14:25.270Z,9.92
2023-04-25T21:17:28.279Z,9.82
2023-04-25T21:20:31.431Z,9.73
2023-04-25T21:23:34.754Z,9.82
2023-04-25T21:26:37.338Z,9.91
2023-04-25T21:29:40.301Z,9.76
2023-04-25T21:32:45.069Z,9.68
2023-04-25T21:35:48.139Z,9.72
2023-04-25T21:38:50.915Z,9.67
2023-04-25T21:41:55.631Z,9.55
2023-04-25T21:44:58.428Z,9.55
2023-04-25T21:48:01.321Z,9.65
2023-04-25T21:51:04.311Z,9.50
2023-04-25T21:54:07.833Z,9.49
2023-04-25T21:57:11.138Z,9.59
2023-04-25T22:00:21.203Z,9.55
2023-04-25T22:03:24.108Z,9.43
2023-04-25T22:06:26.838Z,9.45
2023-04-25T22:09:31.075Z,9.42
2023-04-25T22:12:34.774Z,9.46
2023-04-25T22:15:38.168Z,9.37
2023-04-25T22:18:40.935Z,9.38
2023-04-25T22:21:44.084Z,9.29
2023-04-25T22:24:48.750Z,9.39
2023-04-25T22:27:51.641Z,9.17
2023-04-25T22:30:54.954Z,9.29
2023-04-25T22:33:58.039Z,9.24
2023-04-25T22:37:00.620Z,9.13
2023-04-25T22:40:07.661Z,9.16
2023-04-25T22:43:10.618Z,9.19
2023-04-25T22:46:17.690Z,9.06
2023-04-25T22:49:20.277Z,9.17
2023-04-25T22:52:23.199Z,9.18
2023-04-25T22:55:26.892Z,9.14
2023-04-25T22:58:29.994Z,9.25
2023-04-25T23:01:32.700Z,9.12
2023-04-25T23:04:36.512Z,9.15
2023-04-25T23:07:45.017Z,9.14
2023-04-25T23:10:48.358Z,9.14
2023-04-25T23:13:51.517Z,9.20
2023-04-25T23:16:55.421Z,9.31
2023-04-25T23:19:58.100Z,9.32
2023-04-25T23:23:01.058Z,9.29
2023-04-25T23:26:11.152Z,9.24
2023-04-25T23:29:14.042Z,9.42
2023-04-25T23:32:16.774Z,9.52
2023-04-25T23:35:19.649Z,9.61
2023-04-25T23:38:22.564Z,9.49
2023-04-25T23:41:25.470Z,9.48
2023-04-25T23:44:28.331Z,9.50
2023-04-25T23:47:31.444Z,9.51
2023-04-25T23:50:34.332Z,9.52
2023-04-25T23:53:37.491Z,9.53
2023-04-25T23:56:40.053Z,9.49
2023-04-25T23:59:47.011Z,9.51
